Time;durP1;ratioP1;P1;durP2;ratioP2;P2;SDS_P1;SDS_P2;PMS_P1;PMS_P2;Temp;Humidity;BMP_temperature;BMP_pressure;BME280_temperature;BME280_humidity;BME280_pressure;Samples;Min_cycle;Max_cycle;Signal;HPM_P1;HPM_P2
2021/09/21 00:01:47;;;;;;;8.77;3.20;;;;;;;;;;5133330;28;20042;-69
2021/09/21 00:04:13;;;;;;;9.93;2.70;;;;;;;;;;5133496;28;20039;-69
2021/09/21 00:06:39;;;;;;;4.07;3.22;;;;;;;;;;5133337;28;20023;-69
2021/09/21 00:09:05;;;;;;;4.35;3.00;;;;;;;;;;5133735;28;20023;-69
2021/09/21 00:11:32;;;;;;;3.30;2.53;;;;;;;;;;5115128;28;20061;-67
2021/09/21 00:13:59;;;;;;;6.68;2.50;;;;;;;;;;5133415;28;20047;-67
2021/09/21 00:16:25;;;;;;;6.25;2.15;;;;;;;;;;5029470;28;20026;-67
2021/09/21 00:18:51;;;;;;;11.73;2.53;;;;;;;;;;5023027;28;20030;-67
2021/09/21 00:21:17;;;;;;;15.65;2.55;;;;;;;;;;5012566;28;20455;-66
2021/09/21 00:23:43;;;;;;;19.77;2.63;;;;;;;;;;5012820;28;20025;-66
2021/09/21 00:26:09;;;;;;;5.35;2.33;;;;;;;;;;5012643;28;20065;-67
2021/09/21 00:28:35;;;;;;;13.13;2.50;;;;;;;;;;5012480;28;20022;-67
2021/09/21 00:31:08;;;;;;;14.23;2.58;;;;;;;;;;5012977;28;20037;-66
2021/09/21 00:34:05;;;;;;;8.63;2.63;;;;;;;;;;5080651;28;20034;-68
2021/09/21 00:36:31;;;;;;;16.23;2.10;;;;;;;;;;5083025;28;20030;-66
2021/09/21 00:38:57;;;;;;;16.83;2.35;;;;;;;;;;5068532;27;20019;-69
2021/09/21 00:41:23;;;;;;;14.57;2.42;;;;;;;;;;5062972;27;20068;-68
2021/09/21 00:43:49;;;;;;;4.90;2.10;;;;;;;;;;5074751;27;20018;-69
2021/09/21 00:46:15;;;;;;;5.47;2.40;;;;;;;;;;5074743;27;20063;-68
2021/09/21 00:48:41;;;;;;;7.18;2.38;;;;;;;;;;5074584;27;20019;-68
2021/09/21 00:51:07;;;;;;;5.10;2.63;;;;;;;;;;5076338;27;20036;-67
2021/09/21 00:53:33;;;;;;;3.05;2.25;;;;;;;;;;5084574;27;20021;-68
2021/09/21 00:56:02;;;;;;;9.90;2.28;;;;;;;;;;5065688;27;20134;-69
2021/09/21 00:58:28;;;;;;;4.15;2.05;;;;;;;;;;5099526;28;20469;-67
2021/09/21 01:00:54;;;;;;;6.40;2.15;;;;;;;;;;5109149;27;20097;-68
2021/09/21 01:03:20;;;;;;;14.75;2.20;;;;;;;;;;5078621;27;20027;-68
2021/09/21 01:05:46;;;;;;;6.38;2.10;;;;;;;;;;5117201;27;20027;-68
2021/09/21 01:08:12;;;;;;;5.63;2.10;;;;;;;;;;5135846;27;20023;-68
2021/09/21 01:10:38;;;;;;;3.67;2.03;;;;;;;;;;5136095;27;20019;-66
2021/09/21 01:13:04;;;;;;;4.25;1.77;;;;;;;;;;5136016;27;20019;-66
2021/09/21 01:15:30;;;;;;;6.05;2.20;;;;;;;;;;5069840;27;20483;-67
2021/09/21 01:17:57;;;;;;;9.90;2.25;;;;;;;;;;5031661;28;20029;-67
2021/09/21 01:20:24;;;;;;;11.18;2.40;;;;;;;;;;5031438;28;20021;-67
2021/09/21 01:22:50;;;;;;;7.47;1.90;;;;;;;;;;5030871;28;20446;-67
2021/09/21 01:25:16;;;;;;;7.50;2.10;;;;;;;;;;5099806;28;20041;-68
2021/09/21 01:27:42;;;;;;;12.25;2.10;;;;;;;;;;5100003;28;20079;-69
2021/09/21 01:30:11;;;;;;;5.05;1.95;;;;;;;;;;5031362;28;20051;-67
2021/09/21 01:32:37;;;;;;;6.57;1.70;;;;;;;;;;5031286;28;20021;-68
2021/09/21 01:35:04;;;;;;;6.63;2.03;;;;;;;;;;5031446;28;20064;-68
2021/09/21 01:37:30;;;;;;;4.25;1.63;;;;;;;;;;5031556;28;20113;-69
2021/09/21 01:39:56;;;;;;;2.78;1.65;;;;;;;;;;5043138;27;20029;-69
2021/09/21 01:42:22;;;;;;;8.07;1.75;;;;;;;;;;5135442;27;20043;-67
2021/09/21 01:44:48;;;;;;;8.07;1.67;;;;;;;;;;5116941;27;20115;-67
2021/09/21 01:47:16;;;;;;;8.30;2.03;;;;;;;;;;5135094;27;20053;-67
2021/09/21 01:49:57;;;;;;;4.50;1.55;;;;;;;;;;5135257;27;20063;-68
2021/09/21 01:52:34;;;;;;;5.00;1.60;;;;;;;;;;5135310;27;20227;-68
2021/09/21 01:55:13;;;;;;;8.52;1.40;;;;;;;;;;5135234;27;20125;-66
2021/09/21 02:00:23;;;;;;;3.15;1.58;;;;;;;;;;5011141;28;20040;-66
2021/09/21 02:02:49;;;;;;;6.53;1.85;;;;;;;;;;5011237;28;20022;-67
2021/09/21 02:05:15;;;;;;;6.22;1.67;;;;;;;;;;5011142;28;20099;-67
2021/09/21 02:07:41;;;;;;;4.93;1.83;;;;;;;;;;5011490;28;20014;-66
2021/09/21 02:10:07;;;;;;;8.23;2.20;;;;;;;;;;5011207;28;20050;-68
2021/09/21 02:12:33;;;;;;;14.60;2.00;;;;;;;;;;5011000;28;20497;-67
2021/09/21 02:15:00;;;;;;;5.05;1.50;;;;;;;;;;5010942;28;20070;-67
2021/09/21 02:17:27;;;;;;;8.90;1.77;;;;;;;;;;5078848;28;20026;-66
2021/09/21 02:19:53;;;;;;;8.43;1.75;;;;;;;;;;5010844;28;20037;-66
2021/09/21 02:22:19;;;;;;;10.00;1.73;;;;;;;;;;5010892;28;20053;-66
2021/09/21 02:24:45;;;;;;;6.97;2.00;;;;;;;;;;5010700;28;20041;-67
2021/09/21 02:27:12;;;;;;;4.43;1.60;;;;;;;;;;5078608;28;20076;-66
2021/09/21 02:29:38;;;;;;;14.38;2.28;;;;;;;;;;5010999;28;20071;-68
2021/09/21 02:32:04;;;;;;;10.65;1.80;;;;;;;;;;5028408;28;20376;-67
2021/09/21 02:34:31;;;;;;;13.77;1.98;;;;;;;;;;5030103;28;20391;-67
2021/09/21 02:36:57;;;;;;;14.05;2.20;;;;;;;;;;5030295;28;20021;-66
2021/09/21 02:39:23;;;;;;;9.75;2.17;;;;;;;;;;5030334;28;20442;-66
2021/09/21 02:41:48;;;;;;;16.35;1.50;;;;;;;;;;5124079;27;20110;-66
2021/09/21 02:44:14;;;;;;;9.95;1.83;;;;;;;;;;5134573;27;20030;-66
2021/09/21 02:46:40;;;;;;;11.48;2.03;;;;;;;;;;5089145;27;20043;-66
2021/09/21 02:49:06;;;;;;;5.50;2.15;;;;;;;;;;5030094;28;20025;-66
2021/09/21 02:51:32;;;;;;;7.35;1.95;;;;;;;;;;5098370;28;20053;-68
2021/09/21 02:53:58;;;;;;;7.25;1.65;;;;;;;;;;5030324;28;20053;-68
2021/09/21 02:56:24;;;;;;;7.10;2.10;;;;;;;;;;5030180;28;20021;-67
2021/09/21 02:58:50;;;;;;;7.05;1.75;;;;;;;;;;5030126;28;20034;-67
2021/09/21 03:01:19;;;;;;;15.55;1.73;;;;;;;;;;5028976;28;20074;-67
2021/09/21 03:03:52;;;;;;;3.85;1.58;;;;;;;;;;5097264;28;20026;-66
2021/09/21 03:06:22;;;;;;;11.32;1.63;;;;;;;;;;5029084;28;20056;-68
2021/09/21 03:08:49;;;;;;;5.22;1.52;;;;;;;;;;5097798;28;20021;-67
2021/09/21 03:11:22;;;;;;;8.05;1.88;;;;;;;;;;5115811;27;20414;-67
2021/09/21 03:19:04;;;;;;;4.97;1.50;;;;;;;;;;5133604;27;20263;-67
2021/09/21 03:21:31;;;;;;;2.67;1.50;;;;;;;;;;5133573;27;20043;-67
2021/09/21 03:23:56;;;;;;;8.73;1.98;;;;;;;;;;5133550;28;20367;-68
2021/09/21 03:26:23;;;;;;;6.40;1.38;;;;;;;;;;5119028;28;20031;-67
2021/09/21 03:28:49;;;;;;;6.65;1.40;;;;;;;;;;5113216;28;20028;-66
2021/09/21 03:31:15;;;;;;;5.18;1.70;;;;;;;;;;5113001;28;20595;-66
2021/09/21 03:33:41;;;;;;;15.75;1.90;;;;;;;;;;5112937;28;20024;-66
2021/09/21 03:36:07;;;;;;;3.50;1.50;;;;;;;;;;5112967;28;20074;-68
2021/09/21 03:38:33;;;;;;;11.48;1.60;;;;;;;;;;5113017;28;20145;-68
2021/09/21 03:40:59;;;;;;;6.85;1.58;;;;;;;;;;5119468;28;20031;-66
2021/09/21 03:43:25;;;;;;;4.90;1.70;;;;;;;;;;5097935;28;20068;-66
2021/09/21 03:45:51;;;;;;;10.52;1.45;;;;;;;;;;5097636;28;20041;-68
2021/09/21 03:48:17;;;;;;;5.35;1.38;;;;;;;;;;5029432;28;20018;-66
2021/09/21 03:50:43;;;;;;;8.43;1.50;;;;;;;;;;5029758;28;20056;-65
2021/09/21 03:53:09;;;;;;;5.55;1.65;;;;;;;;;;5099652;28;20029;-67
2021/09/21 03:55:35;;;;;;;7.68;1.67;;;;;;;;;;5033230;28;20126;-67
2021/09/21 03:58:01;;;;;;;3.38;1.30;;;;;;;;;;5032905;28;20094;-65
2021/09/21 04:00:27;;;;;;;2.85;1.30;;;;;;;;;;5101446;28;20424;-65
2021/09/21 04:02:53;;;;;;;2.13;1.40;;;;;;;;;;5032684;28;20021;-66
2021/09/21 04:05:19;;;;;;;2.90;1.30;;;;;;;;;;5100049;28;20508;-68
2021/09/21 04:07:49;;;;;;;7.80;1.50;;;;;;;;;;5101499;28;20029;-67
2021/09/21 04:10:15;;;;;;;4.63;1.67;;;;;;;;;;5076304;27;20027;-67
2021/09/21 04:12:41;;;;;;;2.25;1.50;;;;;;;;;;5137514;27;20034;-68
2021/09/21 04:15:07;;;;;;;3.45;1.50;;;;;;;;;;5137073;27;20027;-67
2021/09/21 04:17:33;;;;;;;2.13;1.42;;;;;;;;;;5136851;27;20031;-67
2021/09/21 04:19:59;;;;;;;2.45;1.20;;;;;;;;;;5137327;27;20081;-67
2021/09/21 04:22:27;;;;;;;9.70;1.70;;;;;;;;;;5136914;27;20043;-67
2021/09/21 04:24:54;;;;;;;4.70;1.55;;;;;;;;;;5136912;27;20092;-67
2021/09/21 04:27:20;;;;;;;5.00;1.60;;;;;;;;;;5118456;27;20023;-68
2021/09/21 04:29:46;;;;;;;9.52;1.70;;;;;;;;;;5137081;27;20509;-69
2021/09/21 04:32:14;;;;;;;14.02;1.92;;;;;;;;;;5118459;27;20055;-67
2021/09/21 04:34:40;;;;;;;9.95;1.70;;;;;;;;;;5137042;27;20040;-67
2021/09/21 04:37:06;;;;;;;10.88;1.60;;;;;;;;;;5104235;27;20363;-67
2021/09/21 04:39:32;;;;;;;5.68;1.63;;;;;;;;;;5012516;28;20033;-67
2021/09/21 04:41:58;;;;;;;10.18;1.83;;;;;;;;;;5133412;27;20530;-67
2021/09/21 04:44:24;;;;;;;5.10;1.50;;;;;;;;;;5136456;27;20037;-68
2021/09/21 04:46:50;;;;;;;7.03;1.60;;;;;;;;;;5136281;27;20132;-67
2021/09/21 04:49:16;;;;;;;10.77;2.35;;;;;;;;;;5136360;27;20051;-67
2021/09/21 04:51:42;;;;;;;5.05;1.70;;;;;;;;;;5118088;27;20019;-67
2021/09/21 04:54:08;;;;;;;5.25;1.50;;;;;;;;;;5118195;27;20027;-66
2021/09/21 04:56:34;;;;;;;6.80;1.27;;;;;;;;;;5136276;27;20033;-66
2021/09/21 04:59:01;;;;;;;4.88;2.00;;;;;;;;;;5136416;27;20019;-67
2021/09/21 05:01:31;;;;;;;5.45;1.75;;;;;;;;;;5135943;27;20011;-66
2021/09/21 05:03:57;;;;;;;7.15;1.45;;;;;;;;;;5135647;27;20367;-65
2021/09/21 05:06:24;;;;;;;5.00;1.58;;;;;;;;;;5086506;27;20580;-65
2021/09/21 05:08:50;;;;;;;5.13;1.42;;;;;;;;;;5032129;28;20082;-69
2021/09/21 05:11:16;;;;;;;3.60;1.42;;;;;;;;;;5118482;27;20459;-67
2021/09/21 05:13:42;;;;;;;3.67;1.70;;;;;;;;;;5136212;27;20019;-66
2021/09/21 05:16:08;;;;;;;7.18;1.52;;;;;;;;;;5100096;28;20034;-67
2021/09/21 05:18:34;;;;;;;6.57;1.40;;;;;;;;;;5031842;28;20491;-67
2021/09/21 05:21:00;;;;;;;2.63;1.50;;;;;;;;;;5031408;28;20060;-67
2021/09/21 05:23:26;;;;;;;8.07;1.75;;;;;;;;;;5031753;28;20032;-67
2021/09/21 05:25:52;;;;;;;1.67;1.20;;;;;;;;;;5031395;28;20030;-67
2021/09/21 05:28:18;;;;;;;3.78;1.90;;;;;;;;;;5099467;28;20116;-67
2021/09/21 05:30:44;;;;;;;5.60;1.85;;;;;;;;;;5031565;28;20037;-67
2021/09/21 05:33:10;;;;;;;5.97;1.80;;;;;;;;;;5031372;28;20049;-68
2021/09/21 05:35:36;;;;;;;14.18;2.67;;;;;;;;;;5028971;28;20057;-67
2021/09/21 05:38:02;;;;;;;4.70;1.80;;;;;;;;;;5011795;28;20108;-64
2021/09/21 05:40:28;;;;;;;12.27;2.10;;;;;;;;;;5103474;27;20023;-67
2021/09/21 05:42:55;;;;;;;7.82;1.80;;;;;;;;;;5085274;27;20036;-68
2021/09/21 05:45:21;;;;;;;7.22;2.60;;;;;;;;;;5135121;27;20027;-67
2021/09/21 05:47:48;;;;;;;5.50;3.08;;;;;;;;;;5105198;27;20507;-67
2021/09/21 05:50:14;;;;;;;4.45;3.40;;;;;;;;;;5116897;27;20363;-68
2021/09/21 05:52:41;;;;;;;8.90;1.60;;;;;;;;;;5134454;27;20016;-66
2021/09/21 05:55:07;;;;;;;7.28;3.50;;;;;;;;;;5045965;27;20110;-68
2021/09/21 05:57:33;;;;;;;8.25;3.05;;;;;;;;;;5134881;27;20094;-71
2021/09/21 06:00:00;;;;;;;6.95;3.08;;;;;;;;;;5093147;27;20038;-69
2021/09/21 06:02:26;;;;;;;17.13;3.20;;;;;;;;;;5015433;28;20109;-69
2021/09/21 06:04:52;;;;;;;19.48;3.08;;;;;;;;;;5081327;28;20034;-67
2021/09/21 06:07:19;;;;;;;4.78;2.88;;;;;;;;;;5080837;28;20025;-68
2021/09/21 06:09:45;;;;;;;6.65;3.38;;;;;;;;;;5089148;28;20029;-69
2021/09/21 06:12:11;;;;;;;6.88;3.30;;;;;;;;;;5019002;28;20485;-68
2021/09/21 06:14:38;;;;;;;8.20;3.20;;;;;;;;;;5023566;28;20121;-68
2021/09/21 06:17:04;;;;;;;7.43;3.08;;;;;;;;;;5017762;28;20074;-68
2021/09/21 06:19:30;;;;;;;15.73;4.07;;;;;;;;;;5060072;27;20017;-68
2021/09/21 06:21:56;;;;;;;9.50;3.53;;;;;;;;;;5081415;27;20428;-68
2021/09/21 06:24:23;;;;;;;5.25;3.30;;;;;;;;;;5025396;28;20492;-66
2021/09/21 06:26:49;;;;;;;12.35;3.00;;;;;;;;;;5078049;28;20036;-65
2021/09/21 06:29:15;;;;;;;6.20;3.67;;;;;;;;;;5010865;28;20079;-64
2021/09/21 06:31:42;;;;;;;14.23;3.60;;;;;;;;;;5028893;28;20026;-66
2021/09/21 06:34:08;;;;;;;10.65;3.83;;;;;;;;;;5031611;28;20025;-68
2021/09/21 06:36:34;;;;;;;10.05;3.92;;;;;;;;;;5030529;28;20037;-68
2021/09/21 06:39:00;;;;;;;9.27;4.18;;;;;;;;;;5085117;28;20030;-68
2021/09/21 06:41:26;;;;;;;7.65;3.90;;;;;;;;;;5103686;27;20450;-68
2021/09/21 06:43:52;;;;;;;11.10;3.80;;;;;;;;;;5110753;27;20027;-68
2021/09/21 06:46:18;;;;;;;4.45;3.63;;;;;;;;;;5047414;27;20041;-67
2021/09/21 06:48:44;;;;;;;9.02;3.97;;;;;;;;;;5063523;27;20051;-68
2021/09/21 06:51:10;;;;;;;12.80;3.28;;;;;;;;;;5076958;27;20666;-66
2021/09/21 06:53:36;;;;;;;5.25;3.15;;;;;;;;;;5084444;27;20025;-66
2021/09/21 06:56:03;;;;;;;9.57;3.85;;;;;;;;;;5074739;27;20023;-66
2021/09/21 06:58:29;;;;;;;12.40;3.90;;;;;;;;;;5080395;27;20036;-66
2021/09/21 07:00:55;;;;;;;8.43;3.65;;;;;;;;;;5071638;27;20674;-66
2021/09/21 07:03:21;;;;;;;5.65;3.30;;;;;;;;;;5075773;27;20145;-66
2021/09/21 07:05:47;;;;;;;8.75;4.00;;;;;;;;;;5091571;27;20028;-65
2021/09/21 07:08:14;;;;;;;10.15;3.80;;;;;;;;;;5086249;27;20062;-66
2021/09/21 07:10:40;;;;;;;9.90;3.60;;;;;;;;;;5073499;27;20045;-65
2021/09/21 07:13:06;;;;;;;4.32;3.72;;;;;;;;;;5085514;27;20025;-66
2021/09/21 07:15:32;;;;;;;5.60;3.63;;;;;;;;;;5063211;27;20023;-66
2021/09/21 07:17:58;;;;;;;8.05;3.90;;;;;;;;;;5074908;27;20466;-66
2021/09/21 07:20:25;;;;;;;17.30;3.97;;;;;;;;;;5060970;27;20026;-65
2021/09/21 07:22:51;;;;;;;7.05;3.92;;;;;;;;;;5065041;28;20041;-66
2021/09/21 07:25:18;;;;;;;5.30;3.53;;;;;;;;;;5077353;28;20042;-65
2021/09/21 07:27:45;;;;;;;6.15;3.90;;;;;;;;;;5088249;27;20236;-71
2021/09/21 07:30:11;;;;;;;6.18;3.40;;;;;;;;;;5100934;27;20092;-70
2021/09/21 07:32:37;;;;;;;6.05;3.40;;;;;;;;;;5085846;27;20027;-70
2021/09/21 07:35:04;;;;;;;6.50;3.83;;;;;;;;;;5100466;27;20031;-69
2021/09/21 07:37:31;;;;;;;5.45;3.55;;;;;;;;;;5090246;27;20037;-70
2021/09/21 07:39:57;;;;;;;5.00;3.60;;;;;;;;;;5064909;27;20029;-70
2021/09/21 07:42:23;;;;;;;6.85;2.33;;;;;;;;;;5088671;27;20437;-72
2021/09/21 07:44:49;;;;;;;5.03;2.05;;;;;;;;;;5111749;27;20031;-71
2021/09/21 07:47:15;;;;;;;8.60;2.05;;;;;;;;;;5070233;28;20036;-69
2021/09/21 07:49:42;;;;;;;6.65;2.30;;;;;;;;;;5111169;27;20046;-73
2021/09/21 07:52:08;;;;;;;7.57;1.90;;;;;;;;;;5117829;27;20053;-72
2021/09/21 07:54:34;;;;;;;3.38;1.80;;;;;;;;;;5082647;27;20101;-68
2021/09/21 07:57:01;;;;;;;5.28;2.15;;;;;;;;;;5088859;27;20023;-72
2021/09/21 07:59:27;;;;;;;6.07;2.30;;;;;;;;;;5076934;27;20027;-70
2021/09/21 08:01:55;;;;;;;3.85;2.05;;;;;;;;;;5102090;27;20023;-71
2021/09/21 08:04:21;;;;;;;4.75;2.00;;;;;;;;;;5113300;27;20474;-72
2021/09/21 08:06:47;;;;;;;7.88;1.75;;;;;;;;;;5095317;27;20027;-70
2021/09/21 08:09:13;;;;;;;9.38;1.98;;;;;;;;;;5083360;27;20019;-69
2021/09/21 08:11:39;;;;;;;10.20;2.58;;;;;;;;;;5066151;27;20025;-69
2021/09/21 08:14:06;;;;;;;3.78;1.80;;;;;;;;;;5064480;27;20025;-71
2021/09/21 08:16:33;;;;;;;5.72;2.08;;;;;;;;;;5085172;27;20025;-72
2021/09/21 08:18:59;;;;;;;10.07;2.22;;;;;;;;;;5097608;28;20112;-71
2021/09/21 08:21:26;;;;;;;7.07;2.38;;;;;;;;;;5058664;27;20560;-72
2021/09/21 08:23:53;;;;;;;5.82;1.90;;;;;;;;;;5097325;27;20653;-72
2021/09/21 08:26:19;;;;;;;4.75;2.40;;;;;;;;;;5072176;27;20041;-71
2021/09/21 08:28:45;;;;;;;4.82;2.08;;;;;;;;;;5088036;28;20378;-70
2021/09/21 08:31:11;;;;;;;5.88;2.30;;;;;;;;;;5086163;28;20033;-70
2021/09/21 08:33:37;;;;;;;5.50;2.22;;;;;;;;;;5028366;28;20033;-73
2021/09/21 08:36:03;;;;;;;2.92;1.88;;;;;;;;;;5024244;28;20030;-71
2021/09/21 08:38:29;;;;;;;3.92;2.28;;;;;;;;;;5033559;28;20109;-75
2021/09/21 08:40:55;;;;;;;13.30;2.40;;;;;;;;;;5098171;28;20067;-76
2021/09/21 08:43:21;;;;;;;10.80;2.38;;;;;;;;;;5089781;28;20069;-73
2021/09/21 08:45:47;;;;;;;5.90;2.17;;;;;;;;;;5081329;28;20045;-67
2021/09/21 08:48:13;;;;;;;5.75;2.20;;;;;;;;;;5026865;28;20026;-73
2021/09/21 08:50:39;;;;;;;7.45;2.33;;;;;;;;;;5027496;27;20034;-75
2021/09/21 08:53:05;;;;;;;5.85;2.40;;;;;;;;;;5088661;28;20030;-72
2021/09/21 08:55:32;;;;;;;9.23;2.70;;;;;;;;;;5064358;27;20031;-74
2021/09/21 08:57:58;;;;;;;10.82;2.17;;;;;;;;;;5092739;28;20032;-74
2021/09/21 09:00:26;;;;;;;4.40;1.85;;;;;;;;;;5104320;27;20022;-74
2021/09/21 09:03:03;;;;;;;4.97;2.22;;;;;;;;;;5064097;27;20015;-71
2021/09/21 09:05:40;;;;;;;3.08;2.05;;;;;;;;;;5106044;27;20079;-73
2021/09/21 09:08:06;;;;;;;2.70;1.60;;;;;;;;;;5012752;28;20026;-71
2021/09/21 09:10:32;;;;;;;2.33;1.70;;;;;;;;;;5019920;27;20040;-77
2021/09/21 09:12:58;;;;;;;5.68;1.80;;;;;;;;;;5022762;28;20018;-72
2021/09/21 09:15:26;;;;;;;2.50;1.70;;;;;;;;;;5028730;28;20111;-75
2021/09/21 09:17:56;;;;;;;5.18;2.25;;;;;;;;;;5019326;28;20014;-76
2021/09/21 09:20:36;;;;;;;4.18;2.08;;;;;;;;;;5023004;28;20028;-72
2021/09/21 09:23:06;;;;;;;2.70;1.48;;;;;;;;;;5097641;28;20033;-75
2021/09/21 09:25:33;;;;;;;4.35;2.08;;;;;;;;;;5022461;28;20033;-76
2021/09/21 09:27:59;;;;;;;3.42;1.77;;;;;;;;;;5011727;28;20414;-72
2021/09/21 09:30:25;;;;;;;7.32;1.80;;;;;;;;;;5017084;28;20100;-72
2021/09/21 09:32:51;;;;;;;2.60;1.90;;;;;;;;;;5028698;28;20017;-72
2021/09/21 09:35:23;;;;;;;2.60;1.73;;;;;;;;;;5021394;28;20040;-73
2021/09/21 09:37:49;;;;;;;2.80;1.73;;;;;;;;;;5014743;28;20085;-71
2021/09/21 09:40:15;;;;;;;4.25;1.33;;;;;;;;;;5031199;28;20036;-71
2021/09/21 09:42:42;;;;;;;1.70;1.20;;;;;;;;;;5015333;28;20026;-71
2021/09/21 09:45:09;;;;;;;6.43;1.52;;;;;;;;;;5090054;28;20452;-71
2021/09/21 09:47:48;;;;;;;3.30;1.67;;;;;;;;;;5016887;28;20025;-71
2021/09/21 09:50:14;;;;;;;1.92;1.45;;;;;;;;;;5016841;28;20029;-72
2021/09/21 09:52:42;;;;;;;1.92;1.08;;;;;;;;;;5031259;28;20134;-71
2021/09/21 09:55:08;;;;;;;1.52;1.20;;;;;;;;;;5027614;28;20022;-70
2021/09/21 09:57:35;;;;;;;1.48;1.38;;;;;;;;;;5090004;28;20026;-74
2021/09/21 10:00:01;;;;;;;1.70;1.17;;;;;;;;;;5027037;28;20032;-76
2021/09/21 10:02:27;;;;;;;2.65;1.40;;;;;;;;;;5093294;28;20044;-72
2021/09/21 10:04:54;;;;;;;2.60;1.30;;;;;;;;;;5090997;28;20484;-72
2021/09/21 10:07:20;;;;;;;2.45;1.20;;;;;;;;;;5085631;28;20370;-72
2021/09/21 10:09:47;;;;;;;1.50;1.10;;;;;;;;;;5015215;28;20476;-71
2021/09/21 10:12:14;;;;;;;1.38;1.23;;;;;;;;;;5044119;27;20361;-68
2021/09/21 10:14:41;;;;;;;2.85;1.30;;;;;;;;;;5038220;27;20017;-70
2021/09/21 10:17:07;;;;;;;1.67;1.25;;;;;;;;;;5027999;28;20025;-69
2021/09/21 10:19:35;;;;;;;2.20;1.30;;;;;;;;;;5033287;27;20359;-69
2021/09/21 10:22:01;;;;;;;1.38;1.20;;;;;;;;;;5056644;27;20038;-71
2021/09/21 10:24:32;;;;;;;1.58;1.05;;;;;;;;;;5072942;28;20036;-70
2021/09/21 10:27:03;;;;;;;1.65;1.00;;;;;;;;;;5106563;27;20106;-69
2021/09/21 10:29:29;;;;;;;2.72;1.10;;;;;;;;;;5114304;27;20447;-69
2021/09/21 10:31:56;;;;;;;1.58;1.10;;;;;;;;;;5055915;27;20029;-70
2021/09/21 10:34:22;;;;;;;1.13;1.00;;;;;;;;;;5096601;28;20030;-70
2021/09/21 10:36:49;;;;;;;1.98;1.23;;;;;;;;;;5032739;27;20427;-70
2021/09/21 10:39:16;;;;;;;1.98;1.15;;;;;;;;;;5068393;27;20081;-68
2021/09/21 10:42:14;;;;;;;2.00;1.10;;;;;;;;;;5124781;27;20019;-70
2021/09/21 10:44:54;;;;;;;2.45;1.00;;;;;;;;;;5082282;27;20049;-70
2021/09/21 10:47:21;;;;;;;1.02;0.88;;;;;;;;;;5069902;28;20018;-68
2021/09/21 10:49:46;;;;;;;9.80;1.08;;;;;;;;;;5037884;28;20026;-72
2021/09/21 10:52:14;;;;;;;2.63;1.05;;;;;;;;;;5074495;27;20049;-66
2021/09/21 10:54:43;;;;;;;1.88;1.13;;;;;;;;;;5070970;27;20025;-70
2021/09/21 10:57:16;;;;;;;10.50;1.85;;;;;;;;;;5112489;27;20033;-72
2021/09/21 10:59:53;;;;;;;16.73;1.75;;;;;;;;;;5014848;27;20732;-72
2021/09/21 11:02:21;;;;;;;6.03;1.10;;;;;;;;;;5039769;27;20021;-71
2021/09/21 11:04:47;;;;;;;4.88;1.65;;;;;;;;;;5028986;28;20037;-72
2021/09/21 11:07:14;;;;;;;5.47;1.45;;;;;;;;;;5053801;27;20427;-71
2021/09/21 11:09:40;;;;;;;4.28;1.38;;;;;;;;;;5111566;27;20031;-71
2021/09/21 11:12:10;;;;;;;8.60;1.70;;;;;;;;;;5101132;27;20055;-71
2021/09/21 11:14:37;;;;;;;3.22;1.60;;;;;;;;;;5046832;27;20030;-71
2021/09/21 11:17:04;;;;;;;1.70;1.30;;;;;;;;;;5058733;27;20071;-71
2021/09/21 11:19:30;;;;;;;3.75;1.70;;;;;;;;;;5079594;27;20021;-72
2021/09/21 11:22:00;;;;;;;3.40;1.70;;;;;;;;;;5112147;27;20046;-71
2021/09/21 11:24:26;;;;;;;2.90;1.30;;;;;;;;;;5055565;28;20430;-72
2021/09/21 11:26:56;;;;;;;8.65;1.85;;;;;;;;;;5044487;28;20092;-73
2021/09/21 11:29:23;;;;;;;5.15;1.35;;;;;;;;;;5070585;28;20029;-76
2021/09/21 11:31:50;;;;;;;2.88;2.08;;;;;;;;;;5104978;28;20371;-68
2021/09/21 11:34:16;;;;;;;3.28;1.40;;;;;;;;;;5088967;28;20121;-68
2021/09/21 11:36:49;;;;;;;2.67;1.50;;;;;;;;;;5095646;28;20023;-66
2021/09/21 11:39:15;;;;;;;3.85;2.10;;;;;;;;;;5079920;28;20019;-80
2021/09/21 11:41:41;;;;;;;5.13;1.88;;;;;;;;;;5098354;28;20431;-80
2021/09/21 11:44:07;;;;;;;8.77;1.98;;;;;;;;;;5090061;28;20076;-80
2021/09/21 11:46:33;;;;;;;13.75;2.05;;;;;;;;;;5110698;28;20028;-77
2021/09/21 11:49:03;;;;;;;5.60;1.73;;;;;;;;;;5096395;28;20023;-68
2021/09/21 11:51:34;;;;;;;3.10;1.88;;;;;;;;;;5100974;28;20472;-74
2021/09/21 11:54:00;;;;;;;4.70;1.88;;;;;;;;;;5113087;28;20496;-65
2021/09/21 11:56:26;;;;;;;2.55;1.60;;;;;;;;;;5085776;28;20033;-65
2021/09/21 11:58:59;;;;;;;11.10;2.00;;;;;;;;;;5108299;28;20034;-65
2021/09/21 12:01:25;;;;;;;;;;;;;;;;;;5125923;28;20084;-76
2021/09/21 12:03:53;;;;;;;6.82;1.40;;;;;;;;;;5133311;28;20014;-84
2021/09/21 12:06:40;;;;;;;4.35;2.10;;;;;;;;;;5063941;28;20037;-78
2021/09/21 12:09:06;;;;;;;2.15;1.73;;;;;;;;;;5082956;28;20459;-75
2021/09/21 12:11:35;;;;;;;2.58;1.77;;;;;;;;;;5093735;28;20499;-72
2021/09/21 12:14:02;;;;;;;2.00;1.50;;;;;;;;;;5030874;28;20041;-73
2021/09/21 12:16:28;;;;;;;4.13;2.40;;;;;;;;;;5091035;28;20109;-72
2021/09/21 12:18:56;;;;;;;4.13;1.80;;;;;;;;;;5054353;27;20023;-69
2021/09/21 12:21:23;;;;;;;3.45;1.70;;;;;;;;;;5118807;27;20053;-71
2021/09/21 12:23:49;;;;;;;10.10;2.10;;;;;;;;;;5060844;27;20516;-69
2021/09/21 12:26:16;;;;;;;6.60;2.15;;;;;;;;;;5122196;27;20125;-71
2021/09/21 12:28:43;;;;;;;21.20;1.98;;;;;;;;;;5137078;27;20510;-68
2021/09/21 12:31:09;;;;;;;8.95;1.80;;;;;;;;;;5094649;27;20022;-67
2021/09/21 12:33:36;;;;;;;2.90;1.63;;;;;;;;;;5063172;27;20357;-64
2021/09/21 12:36:02;;;;;;;3.60;1.63;;;;;;;;;;5109931;27;20099;-65
2021/09/21 12:38:28;;;;;;;4.03;1.60;;;;;;;;;;5106002;27;20027;-65
2021/09/21 12:40:55;;;;;;;1.65;1.35;;;;;;;;;;5091748;27;20022;-64
2021/09/21 12:43:23;;;;;;;3.97;2.28;;;;;;;;;;5105175;27;20043;-66
2021/09/21 12:45:51;;;;;;;3.60;1.90;;;;;;;;;;5103109;27;20031;-68
2021/09/21 12:48:21;;;;;;;2.65;1.48;;;;;;;;;;5058947;27;20036;-67
2021/09/21 12:50:52;;;;;;;2.10;1.10;;;;;;;;;;5117777;27;20106;-67
2021/09/21 12:53:19;;;;;;;2.63;1.67;;;;;;;;;;5082070;27;20021;-64
2021/09/21 12:55:45;;;;;;;4.05;1.77;;;;;;;;;;5092629;27;20007;-64
2021/09/21 12:58:13;;;;;;;3.78;1.75;;;;;;;;;;5089147;27;20023;-65
2021/09/21 13:00:40;;;;;;;2.83;1.60;;;;;;;;;;5103652;27;20079;-64
2021/09/21 13:03:07;;;;;;;2.50;1.55;;;;;;;;;;5097338;27;20036;-65
2021/09/21 13:05:33;;;;;;;5.32;1.50;;;;;;;;;;5092327;27;20023;-69
2021/09/21 13:08:00;;;;;;;3.65;1.40;;;;;;;;;;5063202;27;20018;-66
2021/09/21 13:10:26;;;;;;;2.75;1.25;;;;;;;;;;5107094;27;20027;-65
2021/09/21 13:12:59;;;;;;;4.03;1.80;;;;;;;;;;5086254;27;20040;-73
2021/09/21 13:15:26;;;;;;;2.33;1.40;;;;;;;;;;5117543;27;20027;-67
2021/09/21 13:17:55;;;;;;;1.95;1.13;;;;;;;;;;5091790;27;20023;-65
2021/09/21 13:20:22;;;;;;;2.42;1.23;;;;;;;;;;5116875;27;20034;-70
2021/09/21 13:22:48;;;;;;;1.83;1.55;;;;;;;;;;5066268;27;20081;-66
2021/09/21 13:25:14;;;;;;;2.35;1.63;;;;;;;;;;5123430;27;20027;-69
2021/09/21 13:27:40;;;;;;;3.30;1.05;;;;;;;;;;5118016;27;20041;-68
2021/09/21 13:30:06;;;;;;;3.35;1.27;;;;;;;;;;5135500;27;20033;-72
2021/09/21 13:32:33;;;;;;;1.50;1.17;;;;;;;;;;5135501;27;20019;-79
2021/09/21 13:34:59;;;;;;;4.90;1.50;;;;;;;;;;5127777;27;20023;-71
2021/09/21 13:37:25;;;;;;;2.78;1.50;;;;;;;;;;5031625;28;20472;-70
2021/09/21 13:39:50;;;;;;;1.95;1.20;;;;;;;;;;5031864;28;20036;-83
2021/09/21 13:42:16;;;;;;;3.38;1.33;;;;;;;;;;5030960;28;20033;-67
2021/09/21 13:44:42;;;;;;;1.52;1.30;;;;;;;;;;5031154;28;20038;-71
2021/09/21 13:47:08;;;;;;;4.13;1.27;;;;;;;;;;5105864;27;20035;-71
2021/09/21 13:49:34;;;;;;;1.40;1.10;;;;;;;;;;5117262;27;20019;-65
2021/09/21 13:52:02;;;;;;;1.40;1.10;;;;;;;;;;5135341;27;20381;-65
2021/09/21 13:54:28;;;;;;;1.20;1.10;;;;;;;;;;5135005;27;20031;-64
2021/09/21 13:56:54;;;;;;;2.33;1.30;;;;;;;;;;5116834;27;20015;-69
2021/09/21 13:59:20;;;;;;;6.70;1.52;;;;;;;;;;5134977;27;20083;-67
2021/09/21 14:01:46;;;;;;;2.42;1.05;;;;;;;;;;5135003;27;20109;-70
2021/09/21 14:04:12;;;;;;;1.38;1.00;;;;;;;;;;5135179;27;20196;-68
2021/09/21 14:06:38;;;;;;;2.47;1.48;;;;;;;;;;5116480;27;20125;-69
2021/09/21 14:09:04;;;;;;;1.63;1.20;;;;;;;;;;5022904;27;20342;-69
2021/09/21 14:11:30;;;;;;;4.25;1.63;;;;;;;;;;5128000;27;20027;-70
2021/09/21 14:13:56;;;;;;;35.28;2.70;;;;;;;;;;5136361;27;20094;-68
2021/09/21 14:16:22;;;;;;;1.40;1.08;;;;;;;;;;5031664;28;20045;-65
2021/09/21 14:18:48;;;;;;;1.80;1.20;;;;;;;;;;5030602;28;20029;-67
2021/09/21 14:21:15;;;;;;;1.60;1.10;;;;;;;;;;5103650;27;20054;-66
2021/09/21 14:23:41;;;;;;;2.60;1.20;;;;;;;;;;5097652;28;20077;-67
2021/09/21 14:26:07;;;;;;;1.17;1.05;;;;;;;;;;5030564;28;20120;-63
2021/09/21 14:28:33;;;;;;;5.90;1.80;;;;;;;;;;5030775;28;20025;-69
2021/09/21 14:31:01;;;;;;;5.10;1.45;;;;;;;;;;5098774;28;20029;-64
2021/09/21 14:33:27;;;;;;;1.73;1.40;;;;;;;;;;5030789;28;20061;-63
2021/09/21 14:35:53;;;;;;;4.13;1.40;;;;;;;;;;5029703;28;20480;-64
2021/09/21 14:38:22;;;;;;;7.03;1.60;;;;;;;;;;5030465;28;20089;-68
2021/09/21 14:40:48;;;;;;;2.38;1.50;;;;;;;;;;5030198;28;20033;-65
2021/09/21 14:43:14;;;;;;;1.73;1.08;;;;;;;;;;5098708;28;20022;-69
2021/09/21 14:45:41;;;;;;;6.30;1.25;;;;;;;;;;5030545;28;20026;-68
2021/09/21 14:48:07;;;;;;;8.82;1.60;;;;;;;;;;5030533;28;20081;-69